createdAt,value
2023-04-16T00:00:12.880Z,101144.63
2023-04-16T00:00:46.415Z,101139.16
2023-04-16T00:01:17.148Z,101142.72
2023-04-16T00:01:31.019Z,101145.47
2023-04-16T00:01:43.662Z,101139.16
2023-04-16T00:01:56.521Z,101137.47
2023-04-16T00:02:09.342Z,101144.63
2023-04-16T00:02:22.403Z,101137.47
2023-04-16T00:02:35.314Z,101142.97
2023-04-16T00:02:49.141Z,101138.53
2023-04-16T00:03:02.043Z,101142.09
2023-04-16T00:03:16.598Z,101135.78
2023-04-16T00:03:29.754Z,101141.25
2023-04-16T00:03:42.796Z,101136.63
2023-04-16T00:03:55.973Z,101144.84
2023-04-16T00:04:09.982Z,101141.25
2023-04-16T00:04:22.789Z,101142.09
2023-04-16T00:04:35.685Z,101140.44
2023-04-16T00:04:48.457Z,101144.19
2023-04-16T00:05:01.327Z,101145.06
2023-04-16T00:05:14.914Z,101141.47
2023-04-16T00:05:27.804Z,101140.63
2023-04-16T00:05:41.412Z,101143.38
2023-04-16T00:05:56.004Z,101143.38
2023-04-16T00:06:08.589Z,101140.63
2023-04-16T00:06:21.569Z,101138.72
2023-04-16T00:06:34.198Z,101140.63
2023-04-16T00:06:46.785Z,101142.53
2023-04-16T00:06:59.367Z,101140.63
2023-04-16T00:07:12.981Z,101143.38
2023-04-16T00:07:25.688Z,101145.25
2023-04-16T00:07:38.294Z,101142.53
2023-04-16T00:07:51.672Z,101140.84
2023-04-16T00:08:04.264Z,101139.78
2023-04-16T00:08:16.865Z,101144.44
2023-04-16T00:08:30.464Z,101145.25
2023-04-16T00:08:43.724Z,101140.84
2023-04-16T00:08:56.649Z,101135.38
2023-04-16T00:09:09.423Z,101140.84
2023-04-16T00:09:22.213Z,101143.59
2023-04-16T00:09:34.794Z,101141.69
2023-04-16T00:09:47.378Z,101140.84
2023-04-16T00:10:00.956Z,101139.16
2023-04-16T00:10:14.508Z,101141.91
2023-04-16T00:10:27.254Z,101139.16
2023-04-16T00:10:40.064Z,101141.91
2023-04-16T00:10:53.587Z,101139.16
2023-04-16T00:11:07.226Z,101143.78
2023-04-16T00:11:19.823Z,101144.63
2023-04-16T00:11:32.479Z,101143.78
2023-04-16T00:11:45.093Z,101145.47
2023-04-16T00:11:57.747Z,101151.19
2023-04-16T00:12:10.643Z,101142.97
2023-04-16T00:12:23.631Z,101140.22
2023-04-16T00:12:37.559Z,101143.78
2023-04-16T00:12:50.159Z,101142.97
2023-04-16T00:13:03.316Z,101144.84
2023-04-16T00:13:16.061Z,101142.97
2023-04-16T00:13:28.795Z,101136.63
2023-04-16T00:13:41.452Z,101142.09
2023-04-16T00:13:55.021Z,101146.75
2023-04-16T00:14:07.671Z,101142.09
2023-04-16T00:14:20.297Z,101150.31
2023-04-16T00:14:33.175Z,101146.75
2023-04-16T00:14:45.790Z,101148.44
2023-04-16T00:14:58.411Z,101145.06
2023-04-16T00:15:11.260Z,101151.38
2023-04-16T00:15:25.032Z,101143.16
2023-04-16T00:15:37.709Z,101145.06
2023-04-16T00:15:50.336Z,101145.06
2023-04-16T00:16:03.187Z,101139.59
2023-04-16T00:16:16.321Z,101139.59
2023-04-16T00:16:29.164Z,101143.38
2023-04-16T00:16:41.818Z,101137.88
2023-04-16T00:16:55.605Z,101147.81
2023-04-16T00:17:08.379Z,101144.19
2023-04-16T00:17:21.183Z,101146.09
2023-04-16T00:17:33.849Z,101137.88
2023-04-16T00:17:46.508Z,101142.53
2023-04-16T00:17:59.345Z,101146.09
2023-04-16T00:18:12.973Z,101148.84
2023-04-16T00:18:27.676Z,101152.66
2023-04-16T00:18:40.303Z,101141.69
2023-04-16T00:18:52.935Z,101144.44
2023-04-16T00:19:05.587Z,101147.16
2023-04-16T00:19:18.193Z,101145.47
2023-04-16T00:19:30.887Z,101149.91
2023-04-16T00:19:44.657Z,101150.94
2023-04-16T00:19:57.482Z,101146.31
2023-04-16T00:20:11.488Z,101142.72
2023-04-16T00:20:24.169Z,101143.56
2023-04-16T00:20:36.784Z,101145.47
2023-04-16T00:20:49.372Z,101150.94
2023-04-16T00:21:02.980Z,101150.94
2023-04-16T00:21:15.589Z,101148.19
2023-04-16T00:21:28.208Z,101149.03
2023-04-16T00:21:40.881Z,101148.19
2023-04-16T00:21:53.670Z,101145.47
2023-04-16T00:22:06.461Z,101148.19
2023-04-16T00:22:19.131Z,101152.84
2023-04-16T00:22:32.738Z,101149.28
2023-04-16T00:22:45.413Z,101152.84
2023-04-16T00:22:58.522Z,101149.28
2023-04-16T00:23:11.100Z,101146.53
2023-04-16T00:23:25.346Z,101160.22
2023-04-16T00:23:38.277Z,101149.28
2023-04-16T00:23:50.971Z,101152.00
2023-04-16T00:24:04.775Z,101147.56
2023-04-16T00:24:17.368Z,101152.84
2023-04-16T00:24:30.018Z,101146.53
2023-04-16T00:24:42.711Z,101150.31
2023-04-16T00:24:55.515Z,101156.66
2023-04-16T00:25:08.585Z,101148.44
2023-04-16T00:25:21.699Z,101147.56
2023-04-16T00:25:35.470Z,101152.00
2023-04-16T00:25:48.233Z,101145.91
2023-04-16T00:26:00.871Z,101148.44
2023-04-16T00:26:13.477Z,101150.31
2023-04-16T00:26:26.324Z,101158.50
2023-04-16T00:26:38.907Z,101146.72
2023-04-16T00:26:51.513Z,101148.44
2023-04-16T00:27:04.422Z,101157.69
2023-04-16T00:27:18.004Z,101153.28
2023-04-16T00:27:30.690Z,101157.69
2023-04-16T00:27:43.301Z,101157.69
2023-04-16T00:27:55.898Z,101156.84
2023-04-16T00:28:10.634Z,101153.28
2023-04-16T00:28:23.646Z,101149.66
2023-04-16T00:28:36.680Z,101155.16
2023-04-16T00:28:49.337Z,101147.81
2023-04-16T00:29:03.016Z,101155.16
2023-04-16T00:29:15.889Z,101156.00
2023-04-16T00:29:28.871Z,101157.88
2023-04-16T00:29:41.462Z,101155.16
2023-04-16T00:29:54.046Z,101156.00
2023-04-16T00:30:07.811Z,101155.16
2023-04-16T00:30:20.479Z,101153.47
2023-04-16T00:30:34.086Z,101146.09
2023-04-16T00:30:46.729Z,101164.22
2023-04-16T00:31:01.657Z,101146.09
2023-04-16T00:31:14.315Z,101156.22
2023-04-16T00:31:28.480Z,101158.94
2023-04-16T00:31:41.251Z,101153.47
2023-04-16T00:31:54.827Z,101153.47
2023-04-16T00:32:07.833Z,101156.22
2023-04-16T00:32:20.455Z,101152.66
2023-04-16T00:32:33.084Z,101158.94
2023-04-16T00:32:45.894Z,101148.00
2023-04-16T00:32:58.836Z,101157.25
2023-04-16T00:33:11.484Z,101149.03
2023-04-16T00:33:25.118Z,101157.25
2023-04-16T00:33:39.074Z,101158.94
2023-04-16T00:33:51.640Z,101157.25
2023-04-16T00:34:04.477Z,101157.25
2023-04-16T00:34:17.059Z,101156.41
2023-04-16T00:34:29.644Z,101157.25
2023-04-16T00:34:42.541Z,101159.16
2023-04-16T00:34:56.157Z,101152.84
2023-04-16T00:35:08.972Z,101155.56
2023-04-16T00:35:21.716Z,101150.09
2023-04-16T00:35:34.989Z,101155.56
2023-04-16T00:35:47.824Z,101155.56
2023-04-16T00:36:00.469Z,101155.56
2023-04-16T00:36:13.120Z,101152.84
2023-04-16T00:36:28.200Z,101161.06
2023-04-16T00:36:40.796Z,101159.16
2023-04-16T00:36:53.407Z,101154.75
2023-04-16T00:37:05.994Z,101154.75
2023-04-16T00:37:18.564Z,101153.88
2023-04-16T00:37:31.206Z,101153.88
2023-04-16T00:37:43.769Z,101153.88
2023-04-16T00:37:57.439Z,101153.88
2023-04-16T00:38:10.056Z,101153.03
2023-04-16T00:38:22.902Z,101153.03
2023-04-16T00:38:35.561Z,101153.88
2023-04-16T00:38:48.136Z,101164.81
2023-04-16T00:39:00.798Z,101164.00
2023-04-16T00:39:13.405Z,101158.50
2023-04-16T00:39:26.973Z,101151.38
2023-04-16T00:39:39.695Z,101155.78
2023-04-16T00:39:52.260Z,101157.69
2023-04-16T00:40:05.779Z,101156.84
2023-04-16T00:40:18.374Z,101165.88
2023-04-16T00:40:31.059Z,101158.50
2023-04-16T00:40:44.658Z,101156.00
2023-04-16T00:40:58.833Z,101163.16
2023-04-16T00:41:11.449Z,101160.41
2023-04-16T00:41:24.121Z,101156.00
2023-04-16T00:41:37.815Z,101157.69
2023-04-16T00:41:50.686Z,101156.84
2023-04-16T00:42:03.325Z,101163.16
2023-04-16T00:42:16.216Z,101157.88
2023-04-16T00:42:29.887Z,101155.16
2023-04-16T00:42:42.506Z,101149.66
2023-04-16T00:42:55.114Z,101153.28
2023-04-16T00:43:07.681Z,101154.31
2023-04-16T00:43:24.906Z,101157.03
2023-04-16T00:43:37.532Z,101157.03
2023-04-16T00:43:50.662Z,101157.25
2023-04-16T00:44:03.443Z,101158.09
2023-04-16T00:44:17.090Z,101153.66
2023-04-16T00:44:30.478Z,101151.78
2023-04-16T00:44:43.078Z,101156.22
2023-04-16T00:44:55.745Z,101154.50
2023-04-16T00:45:09.888Z,101160.84
2023-04-16T00:45:22.474Z,101156.41
2023-04-16T00:45:36.127Z,101156.41
2023-04-16T00:45:49.005Z,101153.66
2023-04-16T00:46:06.820Z,101157.25
2023-04-16T00:46:20.397Z,101159.16
2023-04-16T00:46:33.164Z,101152.84
2023-04-16T00:46:46.193Z,101157.25
2023-04-16T00:46:59.006Z,101157.47
2023-04-16T00:47:12.225Z,101157.25
2023-04-16T00:47:25.566Z,101155.56
2023-04-16T00:47:39.839Z,101152.00
2023-04-16T00:47:52.535Z,101155.56
2023-04-16T00:48:06.008Z,101154.75
2023-04-16T00:48:19.160Z,101157.47
2023-04-16T00:48:32.971Z,101154.75
2023-04-16T00:48:47.650Z,101154.75
2023-04-16T00:49:00.965Z,101151.13
2023-04-16T00:49:14.902Z,101160.22
2023-04-16T00:49:28.008Z,101153.03
2023-04-16T00:49:40.774Z,101156.59
2023-04-16T00:49:53.465Z,101158.50
2023-04-16T00:50:07.163Z,101154.94
2023-04-16T00:50:20.007Z,101158.50
2023-04-16T00:50:33.774Z,101152.19
2023-04-16T00:50:46.677Z,101156.84
2023-04-16T00:51:15.009Z,101158.50
2023-04-16T00:51:27.748Z,101145.47
2023-04-16T00:51:40.507Z,101150.50
2023-04-16T00:51:53.097Z,101151.38
2023-04-16T00:52:05.952Z,101151.38
2023-04-16T00:52:18.543Z,101154.94
2023-04-16T00:52:33.670Z,101151.38
2023-04-16T00:52:47.572Z,101155.97
2023-04-16T00:53:01.714Z,101151.38
2023-04-16T00:53:14.849Z,101155.13
2023-04-16T00:53:27.517Z,101157.03
2023-04-16T00:53:40.479Z,101155.13
2023-04-16T00:53:53.549Z,101155.13
2023-04-16T00:54:07.855Z,101155.13
2023-04-16T00:54:21.336Z,101157.03
2023-04-16T00:54:33.972Z,101155.13
2023-04-16T00:54:47.167Z,101160.59
2023-04-16T00:54:59.882Z,101156.19
2023-04-16T00:55:13.482Z,101159.78
2023-04-16T00:55:26.118Z,101157.03
2023-04-16T00:55:41.142Z,101149.66
2023-04-16T00:55:56.164Z,101151.56
2023-04-16T00:56:09.942Z,101152.41
2023-04-16T00:56:24.251Z,101158.94
2023-04-16T00:56:38.010Z,101153.47
2023-04-16T00:56:51.482Z,101160.84
2023-04-16T00:57:05.324Z,101161.69
2023-04-16T00:57:21.021Z,101155.56
2023-04-16T00:57:33.641Z,101158.09
2023-04-16T00:57:46.394Z,101155.56
2023-04-16T00:57:59.019Z,101156.19
2023-04-16T00:58:11.762Z,101155.38
2023-04-16T00:58:24.400Z,101158.09
2023-04-16T00:58:36.994Z,101150.94
2023-04-16T00:58:51.118Z,101149.91
2023-04-16T00:59:04.122Z,101151.75
2023-04-16T00:59:16.768Z,101155.56
2023-04-16T00:59:29.478Z,101156.41
2023-04-16T00:59:42.196Z,101159.97
2023-04-16T00:59:55.976Z,101156.41
2023-04-16T01:00:09.976Z,101156.59
2023-04-16T01:00:23.937Z,101157.25
2023-04-16T01:00:36.819Z,101159.34
2023-04-16T01:00:49.452Z,101161.03
2023-04-16T01:01:02.440Z,101156.41
2023-04-16T01:01:15.129Z,101161.03
2023-04-16T01:01:27.820Z,101163.78
2023-04-16T01:01:40.818Z,101153.88
2023-04-16T01:01:54.554Z,101156.59
2023-04-16T01:02:07.480Z,101156.59
2023-04-16T01:02:20.463Z,101158.50
2023-04-16T01:02:34.151Z,101161.03
2023-04-16T01:02:47.054Z,101159.34
2023-04-16T01:03:00.362Z,101152.19
2023-04-16T01:03:14.165Z,101159.34
2023-04-16T01:03:37.352Z,101157.66
2023-04-16T01:03:51.598Z,101161.25
2023-04-16T01:04:07.268Z,101161.25
2023-04-16T01:04:20.488Z,101163.13
2023-04-16T01:04:34.053Z,101159.34
2023-04-16T01:04:47.924Z,101159.56
2023-04-16T01:05:01.118Z,101162.06
2023-04-16T01:05:13.720Z,101157.66
2023-04-16T01:05:26.718Z,101163.13
2023-04-16T01:05:39.421Z,101163.13
2023-04-16T01:05:52.335Z,101156.59
2023-04-16T01:06:06.427Z,101163.13
2023-04-16T01:06:20.817Z,101164.16
2023-04-16T01:06:33.365Z,101163.13
2023-04-16T01:06:45.938Z,101162.31
2023-04-16T01:06:58.533Z,101160.41
2023-04-16T01:07:11.284Z,101166.91
2023-04-16T01:07:23.919Z,101162.31
2023-04-16T01:07:36.902Z,101163.34
2023-04-16T01:07:50.579Z,101155.97
2023-04-16T01:08:04.507Z,101162.50
2023-04-16T01:08:18.019Z,101166.06
2023-04-16T01:08:30.615Z,101161.44
2023-04-16T01:08:43.466Z,101165.25
2023-04-16T01:08:56.065Z,101172.38
2023-04-16T01:09:10.268Z,101170.72
2023-04-16T01:09:23.008Z,101162.50
2023-04-16T01:09:35.593Z,101166.91
2023-04-16T01:09:49.188Z,101165.25
2023-04-16T01:10:02.132Z,101165.25
2023-04-16T01:10:14.772Z,101164.41
2023-04-16T01:10:27.524Z,101165.25
2023-04-16T01:10:40.155Z,101166.28
2023-04-16T01:10:52.736Z,101171.75
2023-04-16T01:11:07.018Z,101166.28
2023-04-16T01:11:19.610Z,101173.44
2023-04-16T01:11:32.682Z,101169.00
2023-04-16T01:11:45.527Z,101163.53
2023-04-16T01:11:58.130Z,101166.28
2023-04-16T01:12:10.716Z,101163.53
2023-04-16T01:12:23.349Z,101173.66
2023-04-16T01:12:37.095Z,101163.75
2023-04-16T01:12:49.669Z,101161.03
2023-04-16T01:13:02.319Z,101164.59
2023-04-16T01:13:15.120Z,101167.34
2023-04-16T01:13:27.814Z,101164.59
2023-04-16T01:13:40.431Z,101171.97
2023-04-16T01:13:53.083Z,101166.50
2023-04-16T01:14:05.894Z,101171.13
2023-04-16T01:14:19.516Z,101163.75
2023-04-16T01:14:36.302Z,101168.41
2023-04-16T01:14:49.155Z,101164.81
2023-04-16T01:15:02.155Z,101170.28
2023-04-16T01:15:15.021Z,101163.97
2023-04-16T01:15:27.904Z,101166.69
2023-04-16T01:15:40.555Z,101166.69
2023-04-16T01:15:54.238Z,101170.28
2023-04-16T01:16:08.878Z,101165.88
2023-04-16T01:16:21.569Z,101169.44
2023-04-16T01:16:34.267Z,101166.69
2023-04-16T01:16:46.844Z,101166.69
2023-04-16T01:16:59.411Z,101169.44
2023-04-16T01:17:12.220Z,101169.44
2023-04-16T01:17:25.989Z,101169.44
2023-04-16T01:17:38.807Z,101169.44
2023-04-16T01:17:51.469Z,101173.25
2023-04-16T01:18:13.094Z,101167.75
2023-04-16T01:18:26.923Z,101165.88
2023-04-16T01:18:39.854Z,101172.16
2023-04-16T01:18:53.796Z,101165.03
2023-04-16T01:19:07.564Z,101170.50
2023-04-16T01:19:20.678Z,101166.06
2023-04-16T01:19:36.299Z,101165.03
2023-04-16T01:19:48.967Z,101168.81
2023-04-16T01:20:01.610Z,101166.06
2023-04-16T01:20:14.502Z,101161.44
2023-04-16T01:20:27.114Z,101171.53
2023-04-16T01:20:42.060Z,101163.31
2023-04-16T01:20:54.618Z,101161.44
2023-04-16T01:21:07.363Z,101168.81
2023-04-16T01:21:20.061Z,101171.53
2023-04-16T01:21:33.021Z,101166.06
2023-04-16T01:21:45.657Z,101167.97
2023-04-16T01:21:58.308Z,101166.06
2023-04-16T01:22:11.878Z,101165.22
2023-04-16T01:22:24.445Z,101170.69
2023-04-16T01:22:37.035Z,101165.22
2023-04-16T01:22:49.679Z,101169.88
2023-04-16T01:23:02.511Z,101169.88
2023-04-16T01:23:15.556Z,101170.69
2023-04-16T01:23:28.369Z,101169.88
2023-04-16T01:23:41.035Z,101172.59
2023-04-16T01:23:54.621Z,101167.13
2023-04-16T01:24:07.584Z,101169.88
2023-04-16T01:24:20.218Z,101170.91
2023-04-16T01:24:32.783Z,101173.63
2023-04-16T01:24:45.697Z,101174.47
2023-04-16T01:24:58.333Z,101173.63
2023-04-16T01:25:14.717Z,101171.72
2023-04-16T01:25:27.312Z,101164.59
2023-04-16T01:25:41.165Z,101169.22
2023-04-16T01:25:53.770Z,101173.63
2023-04-16T01:26:06.499Z,101176.38
2023-04-16T01:26:19.187Z,101167.31
2023-04-16T01:26:32.254Z,101168.16
2023-04-16T01:26:44.880Z,101172.78
2023-04-16T01:26:58.078Z,101170.91
2023-04-16T01:27:11.745Z,101172.78
2023-04-16T01:27:24.354Z,101173.63
2023-04-16T01:27:37.665Z,101181.00
2023-04-16T01:27:50.900Z,101171.97
2023-04-16T01:28:03.647Z,101172.78
2023-04-16T01:28:16.585Z,101166.50
2023-04-16T01:28:29.234Z,101178.28
2023-04-16T01:28:42.937Z,101173.84
2023-04-16T01:28:55.521Z,101177.44
2023-04-16T01:29:08.207Z,101177.44
2023-04-16T01:29:20.948Z,101174.69
2023-04-16T01:29:33.574Z,101176.56
2023-04-16T01:29:46.155Z,101176.56
2023-04-16T01:29:58.825Z,101171.09
2023-04-16T01:30:13.112Z,101171.09
2023-04-16T01:30:25.767Z,101175.72
2023-04-16T01:30:38.390Z,101170.25
2023-04-16T01:30:51.274Z,101170.25
2023-04-16T01:31:03.957Z,101173.00
2023-04-16T01:31:16.602Z,101174.91
2023-04-16T01:31:29.259Z,101175.72
2023-04-16T01:31:42.912Z,101170.25
2023-04-16T01:31:55.524Z,101173.00
2023-04-16T01:32:08.110Z,101169.44
2023-04-16T01:32:20.764Z,101169.44
2023-04-16T01:32:33.480Z,101175.72
2023-04-16T01:32:46.135Z,101174.91
2023-04-16T01:32:58.859Z,101168.59
2023-04-16T01:33:13.469Z,101171.31
2023-04-16T01:33:26.290Z,101177.63
2023-04-16T01:33:38.869Z,101176.78
2023-04-16T01:33:51.723Z,101177.63
2023-04-16T01:34:04.329Z,101174.06
2023-04-16T01:34:17.937Z,101166.88
2023-04-16T01:34:30.563Z,101175.09
2023-04-16T01:34:43.394Z,101165.84
2023-04-16T01:34:55.977Z,101168.59
2023-04-16T01:35:08.746Z,101171.53
2023-04-16T01:35:21.355Z,101174.06
2023-04-16T01:35:33.936Z,101177.81
2023-04-16T01:35:47.909Z,101171.53
2023-04-16T01:36:01.469Z,101175.97
2023-04-16T01:36:14.080Z,101172.34
2023-04-16T01:36:27.179Z,101172.34
2023-04-16T01:36:39.761Z,101173.22
2023-04-16T01:36:52.364Z,101170.69
2023-04-16T01:37:05.585Z,101167.94
2023-04-16T01:37:18.174Z,101176.16
2023-04-16T01:37:32.232Z,101173.41
2023-04-16T01:37:44.895Z,101170.69
2023-04-16T01:37:57.547Z,101177.00
2023-04-16T01:38:10.922Z,101171.53
2023-04-16T01:38:23.506Z,101172.34
2023-04-16T01:38:36.174Z,101170.69
2023-04-16T01:38:49.152Z,101170.69
2023-04-16T01:39:01.738Z,101176.16
2023-04-16T01:39:16.530Z,101172.59
2023-04-16T01:39:29.188Z,101173.41
2023-04-16T01:39:41.788Z,101173.41
2023-04-16T01:39:54.409Z,101170.69
2023-04-16T01:40:08.130Z,101170.69
2023-04-16T01:40:20.969Z,101170.69
2023-04-16T01:40:33.722Z,101170.69
2023-04-16T01:40:46.385Z,101173.41
2023-04-16T01:41:00.520Z,101169.84
2023-04-16T01:41:13.424Z,101170.69
2023-04-16T01:41:25.990Z,101176.16
2023-04-16T01:41:38.602Z,101166.25
2023-04-16T01:41:51.186Z,101167.13
2023-04-16T01:42:03.850Z,101168.97
2023-04-16T01:42:17.448Z,101172.59
2023-04-16T01:42:30.004Z,101171.72
2023-04-16T01:42:42.674Z,101168.97
2023-04-16T01:42:55.470Z,101174.44
2023-04-16T01:43:08.039Z,101172.78
2023-04-16T01:43:20.681Z,101170.88
2023-04-16T01:43:34.268Z,101174.44
2023-04-16T01:43:46.867Z,101173.63
2023-04-16T01:43:59.437Z,101172.78
2023-04-16T01:44:12.052Z,101167.31
2023-04-16T01:44:25.586Z,101167.31
2023-04-16T01:44:38.353Z,101172.78
2023-04-16T01:44:51.269Z,101170.88
2023-04-16T01:45:04.452Z,101173.63
2023-04-16T01:45:18.153Z,101173.63
2023-04-16T01:45:31.964Z,101173.63
2023-04-16T01:45:44.615Z,101172.78
2023-04-16T01:46:12.478Z,101174.69
2023-04-16T01:46:29.339Z,101175.53
2023-04-16T01:46:43.078Z,101171.09
2023-04-16T01:46:55.768Z,101169.41
2023-04-16T01:47:08.669Z,101173.81
2023-04-16T01:47:21.796Z,101171.09
2023-04-16T01:47:34.447Z,101174.88
2023-04-16T01:47:47.408Z,101170.25
2023-04-16T01:48:00.576Z,101169.41
2023-04-16T01:48:13.262Z,101172.16
2023-04-16T01:48:25.931Z,101175.72
2023-04-16T01:48:39.778Z,101178.44
2023-04-16T01:48:54.748Z,101171.09
2023-04-16T01:49:07.490Z,101164.97
2023-04-16T01:49:20.322Z,101169.41
2023-04-16T01:49:33.881Z,101170.25
2023-04-16T01:49:48.260Z,101177.63
2023-04-16T01:50:02.351Z,101174.88
2023-04-16T01:50:14.998Z,101173.19
2023-04-16T01:50:27.737Z,101176.78
2023-04-16T01:50:40.392Z,101171.31
2023-04-16T01:50:54.341Z,101177.63
2023-04-16T01:51:06.972Z,101174.88
2023-04-16T01:51:19.549Z,101171.31
2023-04-16T01:51:33.252Z,101174.03
2023-04-16T01:51:45.877Z,101170.44
2023-04-16T01:51:58.463Z,101176.78
2023-04-16T01:52:11.401Z,101173.19
2023-04-16T01:52:23.974Z,101174.88
2023-04-16T01:52:37.096Z,101175.06
2023-04-16T01:52:49.978Z,101166.03
2023-04-16T01:53:05.075Z,101172.34
2023-04-16T01:53:18.834Z,101176.78
2023-04-16T01:53:31.455Z,101180.56
2023-04-16T01:53:44.022Z,101171.50
2023-04-16T01:53:58.337Z,101171.50
2023-04-16T01:54:11.219Z,101176.16
2023-04-16T01:54:23.815Z,101176.97
2023-04-16T01:54:36.389Z,101175.06
2023-04-16T01:54:49.949Z,101176.16
2023-04-16T01:55:02.532Z,101182.44
2023-04-16T01:55:15.193Z,101172.56
2023-04-16T01:55:27.786Z,101174.25
2023-04-16T01:55:40.435Z,101167.94
2023-04-16T01:55:53.302Z,101175.31
2023-04-16T01:56:07.003Z,101176.16
2023-04-16T01:56:20.615Z,101176.16
2023-04-16T01:56:33.181Z,101180.78
2023-04-16T01:56:45.832Z,101178.88
2023-04-16T01:56:58.418Z,101180.78
2023-04-16T01:57:11.349Z,101171.69
2023-04-16T01:57:23.937Z,101174.44
2023-04-16T01:57:36.700Z,101181.81
2023-04-16T01:57:50.362Z,101173.59
2023-04-16T01:58:02.944Z,101179.06
2023-04-16T01:58:15.557Z,101178.25
2023-04-16T01:58:29.103Z,101172.78
2023-04-16T01:58:42.897Z,101176.34
2023-04-16T01:58:55.542Z,101176.34
2023-04-16T01:59:09.420Z,101181.81
2023-04-16T01:59:22.163Z,101179.06
2023-04-16T01:59:35.152Z,101177.41
2023-04-16T01:59:47.795Z,101175.69
2023-04-16T02:00:00.463Z,101174.66
2023-04-16T02:00:13.404Z,101182.88
2023-04-16T02:00:26.005Z,101173.81
2023-04-16T02:00:40.111Z,101172.97
2023-04-16T02:00:52.917Z,101182.00
2023-04-16T02:01:06.674Z,101178.44
2023-04-16T02:01:19.628Z,101178.44
2023-04-16T02:01:32.640Z,101177.41
2023-04-16T02:01:45.556Z,101173.81
2023-04-16T02:02:02.449Z,101175.69
2023-04-16T02:02:16.333Z,101180.34
2023-04-16T02:02:29.326Z,101178.44
2023-04-16T02:02:42.392Z,101172.97
2023-04-16T02:02:55.398Z,101185.81
2023-04-16T02:03:08.278Z,101179.50
2023-04-16T02:03:21.590Z,101178.44
2023-04-16T02:03:35.698Z,101175.06
2023-04-16T02:03:48.960Z,101186.63
2023-04-16T02:04:01.833Z,101179.50
2023-04-16T02:04:14.520Z,101172.31
2023-04-16T02:04:27.151Z,101176.75
2023-04-16T02:04:40.770Z,101178.63
2023-04-16T02:04:53.713Z,101178.63
2023-04-16T02:05:06.695Z,101181.38
2023-04-16T02:05:20.496Z,101183.25
2023-04-16T02:05:33.086Z,101180.53
2023-04-16T02:05:45.777Z,101184.09
2023-04-16T02:05:59.882Z,101171.50
2023-04-16T02:06:12.485Z,101182.44
2023-04-16T02:06:25.109Z,101180.53
2023-04-16T02:06:37.725Z,101175.06
2023-04-16T02:06:51.344Z,101175.06
2023-04-16T02:07:04.681Z,101183.25
2023-04-16T02:07:17.268Z,101176.13
2023-04-16T02:07:31.659Z,101167.91
2023-04-16T02:07:44.258Z,101171.50
2023-04-16T02:07:56.856Z,101174.22
2023-04-16T02:08:09.514Z,101174.22
2023-04-16T02:08:22.302Z,101169.78
2023-04-16T02:08:35.977Z,101174.41
2023-04-16T02:08:48.591Z,101171.69
2023-04-16T02:09:01.215Z,101178.00
2023-04-16T02:09:14.165Z,101178.84
2023-04-16T02:09:26.759Z,101176.13
2023-04-16T02:09:40.946Z,101171.69
2023-04-16T02:09:54.614Z,101175.25
2023-04-16T02:10:10.346Z,101174.41
2023-04-16T02:10:23.514Z,101178.19
2023-04-16T02:10:36.154Z,101174.41
2023-04-16T02:10:50.382Z,101175.25
2023-04-16T02:11:03.015Z,101179.88
2023-04-16T02:11:16.049Z,101175.25
2023-04-16T02:11:29.627Z,101166.41
2023-04-16T02:11:42.241Z,101171.69
2023-04-16T02:11:54.814Z,101179.06
2023-04-16T02:12:07.961Z,101178.19
2023-04-16T02:12:20.603Z,101172.72
2023-04-16T02:12:33.211Z,101178.19
2023-04-16T02:12:45.871Z,101176.31
2023-04-16T02:12:59.483Z,101168.28
2023-04-16T02:13:12.065Z,101177.34
2023-04-16T02:13:26.107Z,101175.66
2023-04-16T02:13:38.692Z,101171.00
2023-04-16T02:13:51.501Z,101176.47
2023-04-16T02:14:04.098Z,101174.63
2023-04-16T02:14:16.688Z,101175.66
2023-04-16T02:14:30.747Z,101171.00
2023-04-16T02:14:43.538Z,101176.47
2023-04-16T02:14:56.124Z,101180.28
2023-04-16T02:15:09.603Z,101175.66
2023-04-16T02:15:22.942Z,101177.56
2023-04-16T02:15:35.581Z,101180.28
2023-04-16T02:15:49.601Z,101168.50
2023-04-16T02:16:03.679Z,101180.28
2023-04-16T02:16:16.301Z,101180.28
2023-04-16T02:16:28.950Z,101177.56
2023-04-16T02:16:41.624Z,101166.81
2023-04-16T02:16:54.404Z,101173.97
2023-04-16T02:17:07.163Z,101175.84
2023-04-16T02:17:19.856Z,101184.06
2023-04-16T02:17:33.589Z,101170.38
2023-04-16T02:17:46.744Z,101178.59
2023-04-16T02:17:59.497Z,101181.31
2023-04-16T02:18:12.381Z,101175.84
2023-04-16T02:18:24.976Z,101173.13
2023-04-16T02:18:37.564Z,101178.59
2023-04-16T02:18:50.462Z,101178.59
2023-04-16T02:19:04.636Z,101175.84
2023-04-16T02:19:17.241Z,101173.97
2023-04-16T02:19:29.862Z,101170.38
2023-04-16T02:19:42.418Z,101175.84
2023-04-16T02:19:55.015Z,101178.59
2023-04-16T02:20:10.274Z,101169.53
2023-04-16T02:20:22.996Z,101175.84
2023-04-16T02:20:36.395Z,101178.59
2023-04-16T02:20:50.492Z,101175.84
2023-04-16T02:21:06.530Z,101175.84
2023-04-16T02:21:20.254Z,101172.28
2023-04-16T02:21:32.931Z,101176.91
2023-04-16T02:21:45.846Z,101175.00
2023-04-16T02:21:58.730Z,101176.91
2023-04-16T02:22:11.350Z,101181.53
2023-04-16T02:22:24.977Z,101176.06
2023-04-16T02:22:37.617Z,101176.91
2023-04-16T02:22:50.311Z,101176.91
2023-04-16T02:23:02.902Z,101174.19
2023-04-16T02:23:15.844Z,101179.66
2023-04-16T02:23:28.447Z,101174.19
2023-04-16T02:23:42.041Z,101175.22
2023-04-16T02:23:54.618Z,101174.19
2023-04-16T02:24:07.237Z,101174.19
2023-04-16T02:24:19.898Z,101175.22
2023-04-16T02:24:32.518Z,101178.81
2023-04-16T02:24:45.068Z,101179.66
2023-04-16T02:24:58.647Z,101173.34
2023-04-16T02:25:11.318Z,101179.66
2023-04-16T02:25:24.365Z,101176.06
2023-04-16T02:25:41.268Z,101174.38
2023-04-16T02:25:54.093Z,101175.22
2023-04-16T02:26:06.698Z,101172.47
2023-04-16T02:26:20.295Z,101180.69
2023-04-16T02:26:33.266Z,101169.75
2023-04-16T02:26:46.070Z,101177.94
2023-04-16T02:26:58.814Z,101174.38
2023-04-16T02:27:11.430Z,101177.09
2023-04-16T02:27:24.006Z,101174.38
2023-04-16T02:27:37.757Z,101180.69
2023-04-16T02:27:50.356Z,101181.53
2023-04-16T02:28:02.964Z,101177.09
2023-04-16T02:28:16.782Z,101176.28
2023-04-16T02:28:29.383Z,101184.47
2023-04-16T02:28:41.990Z,101173.53
2023-04-16T02:28:54.630Z,101179.00
2023-04-16T02:29:08.514Z,101179.84
2023-04-16T02:29:22.657Z,101179.00
2023-04-16T02:29:35.352Z,101180.03
2023-04-16T02:29:47.941Z,101180.91
2023-04-16T02:30:00.777Z,101180.03
2023-04-16T02:30:13.473Z,101179.00
2023-04-16T02:30:26.051Z,101174.56
2023-04-16T02:30:40.032Z,101178.16
2023-04-16T02:30:53.636Z,101181.75
2023-04-16T02:31:07.884Z,101187.22